KLNN/LNN METAR and TAF weather

Enter ICAO airport designator
Station Type Date Time Source
KLNN METAR 2020/09/18 16:55 UTC NOAA

KLNN 181655Z AUTO 02014G19KT 10SM SCT033 SCT040 SCT050 16/04 A3024 RMK AO1 T01570038


Station Type Date Time Source
KLNN Decoded METAR 2020/09/18 16:55 UTC NOAA

Willoughby, OH, United States (KLNN) 41-41N 081-23W
Sep 18, 2020 - 12:55 PM EDT / 2020.09.18 1655 UTC
Wind: from the NNE (020 degrees) at 16 MPH (14 KT) gusting to 22 MPH (19 KT):0
Visibility: 10 mile(s):0
Sky conditions: partly cloudy
Temperature: 60.3 F (15.7 C)
Dew Point: 38.8 F (3.8 C)
Relative Humidity: 44%
Pressure (altimeter): 30.24 in. Hg (1024 hPa)
ob: KLNN 181655Z AUTO 02014G19KT 10SM SCT033 SCT040 SCT050 16/04 A3024 RMK AO1 T01570038
cycle: 17

Station Type Date Time Source
KLNN TAF UTC NOAA

Error!

Example: see airport list